createdAt,value
2023-05-04T00:01:39.550Z,61.08
2023-05-04T00:04:15.781Z,60.75
2023-05-04T00:06:47.538Z,60.88
2023-05-04T00:09:17.653Z,60.45
2023-05-04T00:11:47.990Z,60.64
2023-05-04T00:14:16.210Z,61.48
2023-05-04T00:16:44.488Z,60.88
2023-05-04T00:19:12.467Z,62.08
2023-05-04T00:21:45.812Z,61.66
2023-05-04T00:24:14.352Z,62.91
2023-05-04T00:26:47.646Z,62.59
2023-05-04T00:29:15.735Z,61.19
2023-05-04T00:31:44.043Z,60.94
2023-05-04T00:34:15.891Z,60.82
2023-05-04T00:36:44.121Z,61.05
2023-05-04T00:39:16.299Z,61.02
2023-05-04T00:41:46.059Z,61.53
2023-05-04T00:44:15.017Z,62.47
2023-05-04T00:46:43.349Z,63.16
2023-05-04T00:49:15.166Z,62.56
2023-05-04T00:51:43.415Z,62.01
2023-05-04T00:54:12.691Z,62.57
2023-05-04T00:56:45.770Z,62.58
2023-05-04T00:59:15.494Z,62.90
2023-05-04T01:01:46.736Z,63.06
2023-05-04T01:04:19.838Z,62.46
2023-05-04T01:06:54.555Z,62.67
2023-05-04T01:09:26.419Z,63.54
2023-05-04T01:12:00.346Z,63.79
2023-05-04T01:14:41.231Z,63.50
2023-05-04T01:17:09.843Z,64.15
2023-05-04T01:19:37.869Z,64.25
2023-05-04T01:22:14.415Z,63.78
2023-05-04T01:24:42.241Z,64.59
2023-05-04T01:27:14.516Z,63.91
2023-05-04T01:29:49.295Z,66.45
2023-05-04T01:32:21.063Z,64.17
2023-05-04T01:34:52.263Z,64.53
2023-05-04T01:37:23.855Z,64.03
2023-05-04T01:39:54.737Z,63.56
2023-05-04T01:42:22.908Z,63.87
2023-05-04T01:44:52.020Z,64.05
2023-05-04T01:47:23.516Z,63.80
2023-05-04T01:49:51.962Z,64.14
2023-05-04T01:52:21.908Z,63.73
2023-05-04T01:54:58.683Z,63.38
2023-05-04T01:57:27.051Z,64.61
2023-05-04T01:59:59.726Z,63.98
2023-05-04T02:02:30.615Z,64.90
2023-05-04T02:05:00.322Z,64.39
2023-05-04T02:07:30.060Z,64.64
2023-05-04T02:09:58.211Z,65.05
2023-05-04T02:12:31.434Z,65.31
2023-05-04T02:14:59.322Z,65.22
2023-05-04T02:17:27.169Z,64.54
2023-05-04T02:19:55.571Z,64.29
2023-05-04T02:22:26.543Z,65.65
2023-05-04T02:24:56.596Z,65.96
2023-05-04T02:27:28.362Z,66.29
2023-05-04T02:29:58.708Z,67.06
2023-05-04T02:32:27.650Z,66.46
2023-05-04T02:34:56.156Z,65.76
2023-05-04T02:37:29.667Z,65.44
2023-05-04T02:40:04.974Z,66.88
2023-05-04T02:42:33.622Z,65.24
2023-05-04T02:45:01.887Z,66.09
2023-05-04T02:47:32.858Z,65.17
2023-05-04T02:50:05.001Z,66.50
2023-05-04T02:52:46.529Z,66.44
2023-05-04T02:55:21.475Z,66.99
2023-05-04T02:57:52.227Z,67.33
2023-05-04T03:00:20.381Z,67.96
2023-05-04T03:03:05.622Z,66.56
2023-05-04T03:05:37.065Z,67.08
2023-05-04T03:08:06.813Z,68.18
2023-05-04T03:10:38.084Z,66.94
2023-05-04T03:13:06.388Z,66.43
2023-05-04T03:15:34.783Z,67.19
2023-05-04T03:18:02.991Z,67.17
2023-05-04T03:20:31.320Z,67.24
2023-05-04T03:22:59.159Z,66.64
2023-05-04T03:25:29.579Z,67.26
2023-05-04T03:28:01.787Z,66.79
2023-05-04T03:30:29.805Z,67.33
2023-05-04T03:32:58.704Z,67.21
2023-05-04T03:35:27.434Z,67.66
2023-05-04T03:37:55.240Z,66.74
2023-05-04T03:40:24.364Z,67.82
2023-05-04T03:42:59.208Z,67.08
2023-05-04T03:45:32.932Z,67.25
2023-05-04T03:48:03.701Z,67.69
2023-05-04T03:50:31.853Z,66.93
2023-05-04T03:53:00.265Z,65.73
2023-05-04T03:55:29.223Z,67.25
2023-05-04T03:57:57.455Z,66.95
2023-05-04T04:00:25.955Z,66.70
2023-05-04T04:02:56.099Z,65.92
2023-05-04T04:05:30.396Z,66.88
2023-05-04T04:08:01.582Z,67.36
2023-05-04T04:10:30.030Z,65.77
2023-05-04T04:12:58.301Z,66.52
2023-05-04T04:15:27.382Z,66.88
2023-05-04T04:17:57.070Z,66.17
2023-05-04T04:20:29.345Z,65.86
2023-05-04T04:23:02.052Z,65.80
2023-05-04T04:25:30.398Z,66.76
2023-05-04T04:27:58.623Z,68.08
2023-05-04T04:30:26.951Z,67.93
2023-05-04T04:33:03.726Z,67.70
2023-05-04T04:35:37.411Z,69.62
2023-05-04T04:38:08.218Z,68.14
2023-05-04T04:40:36.061Z,67.76
2023-05-04T04:43:05.087Z,68.03
2023-05-04T04:45:43.935Z,68.02
2023-05-04T04:48:13.464Z,68.21
2023-05-04T04:50:41.801Z,67.76
2023-05-04T04:53:13.341Z,68.07
2023-05-04T04:55:42.210Z,68.20
2023-05-04T04:58:11.144Z,67.84
2023-05-04T05:00:45.030Z,69.06
2023-05-04T05:03:16.556Z,68.87
2023-05-04T05:05:45.185Z,69.46
2023-05-04T05:08:15.593Z,68.68
2023-05-04T05:10:50.614Z,68.02
2023-05-04T05:13:25.459Z,67.74
2023-05-04T05:15:53.958Z,67.29
2023-05-04T05:18:24.975Z,67.91
2023-05-04T05:20:53.148Z,68.08
2023-05-04T05:23:25.101Z,66.78
2023-05-04T05:25:54.785Z,66.98
2023-05-04T05:28:28.483Z,66.66
2023-05-04T05:30:58.371Z,65.66
2023-05-04T05:33:28.198Z,66.67
2023-05-04T05:35:57.143Z,66.22
2023-05-04T05:38:29.757Z,66.05
2023-05-04T05:41:12.779Z,64.91
2023-05-04T05:43:51.764Z,64.84
2023-05-04T05:46:23.146Z,63.92
2023-05-04T05:48:59.518Z,64.09
2023-05-04T05:51:31.301Z,64.38
2023-05-04T05:54:02.482Z,64.87
2023-05-04T05:56:33.143Z,64.75
2023-05-04T05:59:03.605Z,64.57
2023-05-04T06:01:32.310Z,64.12
2023-05-04T06:04:02.384Z,64.13
2023-05-04T06:06:33.333Z,63.57
2023-05-04T06:09:09.545Z,63.21
2023-05-04T06:11:42.183Z,63.67
2023-05-04T06:14:12.628Z,63.30
2023-05-04T06:16:41.408Z,63.49
2023-05-04T06:19:14.093Z,63.33
2023-05-04T06:22:04.606Z,62.48
2023-05-04T06:24:36.719Z,61.81
2023-05-04T06:27:05.390Z,60.48
2023-05-04T06:29:33.878Z,61.23
2023-05-04T06:32:05.431Z,61.04
2023-05-04T06:34:35.399Z,60.48
2023-05-04T06:37:06.109Z,60.42
2023-05-04T06:39:34.747Z,60.28
2023-05-04T06:42:04.510Z,60.69
2023-05-04T06:44:46.579Z,60.40
2023-05-04T06:47:16.826Z,60.47
2023-05-04T06:49:53.028Z,61.49
2023-05-04T06:52:23.688Z,62.57
2023-05-04T06:54:52.041Z,62.58
2023-05-04T06:57:22.476Z,62.49
2023-05-04T06:59:52.557Z,62.08
2023-05-04T07:02:22.746Z,62.37
2023-05-04T07:04:53.945Z,60.37
2023-05-04T07:07:22.208Z,61.86
2023-05-04T07:09:50.787Z,62.31
2023-05-04T07:12:19.819Z,61.61
2023-05-04T07:14:49.275Z,61.75
2023-05-04T07:17:21.443Z,60.33
2023-05-04T07:19:52.786Z,60.35
2023-05-04T07:22:24.663Z,60.76
2023-05-04T07:24:56.745Z,59.88
2023-05-04T07:27:28.287Z,60.27
2023-05-04T07:29:59.653Z,59.64
2023-05-04T07:32:30.923Z,59.88
2023-05-04T07:35:00.405Z,58.88
2023-05-04T07:37:36.745Z,59.84
2023-05-04T07:40:07.841Z,60.11
2023-05-04T07:42:36.183Z,60.54
2023-05-04T07:45:08.629Z,60.89
2023-05-04T07:47:37.202Z,60.04
2023-05-04T07:50:08.462Z,60.25
2023-05-04T07:52:38.342Z,60.14
2023-05-04T07:55:08.210Z,58.64
2023-05-04T07:57:40.992Z,57.12
2023-05-04T08:00:11.406Z,59.24
2023-05-04T08:02:39.803Z,59.44
2023-05-04T08:05:08.969Z,60.33
2023-05-04T08:07:44.512Z,60.72
2023-05-04T08:10:15.794Z,59.87
2023-05-04T08:12:46.013Z,59.57
2023-05-04T08:15:17.130Z,60.01
2023-05-04T08:17:45.711Z,59.87
2023-05-04T08:20:14.853Z,59.63
2023-05-04T08:22:47.646Z,59.81
2023-05-04T08:25:16.040Z,58.73
2023-05-04T08:27:46.752Z,58.32
2023-05-04T08:30:16.001Z,58.33
2023-05-04T08:32:47.080Z,60.57
2023-05-04T08:35:20.690Z,60.73
2023-05-04T08:37:51.691Z,59.42
2023-05-04T08:40:26.621Z,57.47
2023-05-04T08:42:59.333Z,57.96
2023-05-04T08:45:27.446Z,56.01
2023-05-04T08:47:58.398Z,56.34
2023-05-04T08:50:30.033Z,52.41
2023-05-04T08:53:03.843Z,51.04
2023-05-04T08:55:33.483Z,51.43
2023-05-04T08:58:03.695Z,51.30
2023-05-04T09:00:36.837Z,51.25
2023-05-04T09:03:07.932Z,50.06
2023-05-04T09:05:39.218Z,49.35
2023-05-04T09:08:10.640Z,48.56
2023-05-04T09:10:44.831Z,49.30
2023-05-04T09:13:16.945Z,48.22
2023-05-04T09:15:55.324Z,48.63
2023-05-04T09:18:24.316Z,49.22
2023-05-04T09:20:58.066Z,47.63
2023-05-04T09:23:28.846Z,48.33
2023-05-04T09:25:57.821Z,48.82
2023-05-04T09:28:37.133Z,47.82
2023-05-04T09:31:08.469Z,47.61
2023-05-04T09:33:44.281Z,48.19
2023-05-04T09:36:21.330Z,47.34
2023-05-04T09:38:53.236Z,46.90
2023-05-04T09:41:36.680Z,49.25
2023-05-04T09:44:06.647Z,47.49
2023-05-04T09:46:37.722Z,47.54
2023-05-04T09:49:08.160Z,46.20
2023-05-04T09:51:36.740Z,46.16
2023-05-04T09:54:09.391Z,46.37
2023-05-04T09:56:42.939Z,46.64
2023-05-04T09:59:11.291Z,46.42
2023-05-04T10:01:44.709Z,45.73
2023-05-04T10:04:15.723Z,46.09
2023-05-04T10:06:45.298Z,45.23
2023-05-04T10:09:16.065Z,45.66
2023-05-04T10:11:47.370Z,46.43
2023-05-04T10:14:15.454Z,45.47
2023-05-04T10:16:52.226Z,44.69
2023-05-04T10:19:50.359Z,45.42
2023-05-04T10:22:35.113Z,45.22
2023-05-04T10:25:27.503Z,44.72
2023-05-04T10:28:04.664Z,44.43
2023-05-04T10:30:32.999Z,44.88
2023-05-04T10:33:04.533Z,45.11
2023-05-04T10:35:38.785Z,43.49
2023-05-04T10:38:07.553Z,43.69
2023-05-04T10:40:39.705Z,43.42
2023-05-04T10:43:09.418Z,44.04
2023-05-04T10:45:41.264Z,44.63
2023-05-04T10:48:14.078Z,43.79
2023-05-04T10:50:48.430Z,43.28
2023-05-04T10:53:26.945Z,42.66
2023-05-04T10:55:58.735Z,43.95
2023-05-04T10:58:30.523Z,43.71
2023-05-04T11:01:03.036Z,42.98
2023-05-04T11:03:42.814Z,42.63
2023-05-04T11:06:23.352Z,41.94
2023-05-04T11:09:12.425Z,42.43
2023-05-04T11:11:41.623Z,42.16
2023-05-04T11:14:14.086Z,41.76
2023-05-04T11:16:41.916Z,41.17
2023-05-04T11:19:12.573Z,41.42
2023-05-04T11:21:54.367Z,40.65
2023-05-04T11:24:23.047Z,41.30
2023-05-04T11:26:52.807Z,40.25
2023-05-04T11:29:20.793Z,39.79
2023-05-04T11:32:00.187Z,39.35
2023-05-04T11:34:29.370Z,39.72
2023-05-04T11:36:59.731Z,39.25
2023-05-04T11:39:28.390Z,42.02
2023-05-04T11:41:58.867Z,38.26
2023-05-04T11:44:27.134Z,37.30
2023-05-04T11:46:56.746Z,37.45
2023-05-04T11:49:31.055Z,38.03
2023-05-04T11:52:10.042Z,37.24
2023-05-04T11:54:38.654Z,37.47
2023-05-04T11:57:08.625Z,37.43
2023-05-04T11:59:53.472Z,37.59
2023-05-04T12:02:25.846Z,38.17
2023-05-04T12:04:56.585Z,37.36
2023-05-04T12:07:33.018Z,37.55
2023-05-04T12:10:01.535Z,35.49
2023-05-04T12:12:39.112Z,36.10
2023-05-04T12:15:13.128Z,36.43
2023-05-04T12:17:42.081Z,36.51
2023-05-04T12:20:13.200Z,36.75
2023-05-04T12:22:41.183Z,37.56
2023-05-04T12:25:13.189Z,37.62
2023-05-04T12:27:46.102Z,36.67
2023-05-04T12:30:17.404Z,35.43
2023-05-04T12:32:49.473Z,36.84
2023-05-04T12:35:20.822Z,35.17
2023-05-04T12:37:49.119Z,36.27
2023-05-04T12:40:27.831Z,36.48
2023-05-04T12:43:02.010Z,35.79
2023-05-04T12:45:36.071Z,36.18
2023-05-04T12:48:07.378Z,36.34
2023-05-04T12:50:36.043Z,35.30
2023-05-04T12:53:09.204Z,35.39
2023-05-04T12:55:37.617Z,34.82
2023-05-04T12:58:10.284Z,36.07
2023-05-04T13:00:45.859Z,35.35
2023-05-04T13:03:19.357Z,36.37
2023-05-04T13:05:52.900Z,34.81
2023-05-04T13:08:22.541Z,34.90
2023-05-04T13:10:50.646Z,34.02
2023-05-04T13:13:28.788Z,34.12
2023-05-04T13:15:57.334Z,34.85
2023-05-04T13:18:40.046Z,34.09
2023-05-04T13:21:18.333Z,34.00
2023-05-04T13:23:48.424Z,33.79
2023-05-04T13:26:20.524Z,34.31
2023-05-04T13:28:51.742Z,32.54
2023-05-04T13:31:20.706Z,33.34
2023-05-04T13:33:50.794Z,34.64
2023-05-04T13:36:19.267Z,35.46
2023-05-04T13:38:50.655Z,32.60
2023-05-04T13:41:19.642Z,33.02
2023-05-04T13:43:49.677Z,33.68
2023-05-04T13:46:18.859Z,33.36
2023-05-04T13:48:55.186Z,34.15
2023-05-04T13:51:28.818Z,33.42
2023-05-04T13:53:56.629Z,33.34
2023-05-04T13:56:28.189Z,32.76
2023-05-04T13:58:59.844Z,32.08
2023-05-04T14:01:34.270Z,31.86
2023-05-04T14:04:08.129Z,31.73
2023-05-04T14:06:36.897Z,32.18
2023-05-04T14:09:10.467Z,31.73
2023-05-04T14:11:48.944Z,32.63
2023-05-04T14:14:24.609Z,32.69
2023-05-04T14:16:52.803Z,32.58
2023-05-04T14:19:30.581Z,33.98
2023-05-04T14:21:59.139Z,32.96
2023-05-04T14:24:36.658Z,32.83
2023-05-04T14:27:04.905Z,33.00
2023-05-04T14:29:40.059Z,32.77
2023-05-04T14:32:14.000Z,32.66
2023-05-04T14:34:42.185Z,32.73
2023-05-04T14:37:10.231Z,33.01
2023-05-04T14:39:44.172Z,34.16
2023-05-04T14:42:23.078Z,34.12
2023-05-04T14:44:53.953Z,35.07
2023-05-04T14:47:22.189Z,34.74
2023-05-04T14:49:54.755Z,35.62
2023-05-04T14:52:26.905Z,34.41
2023-05-04T14:54:55.000Z,35.06
2023-05-04T14:57:30.483Z,34.57
2023-05-04T15:00:00.888Z,35.58
2023-05-04T15:02:30.894Z,37.07
2023-05-04T15:05:07.592Z,36.20
2023-05-04T15:07:37.212Z,35.21
2023-05-04T15:10:07.855Z,35.03
2023-05-04T15:12:41.459Z,36.48
2023-05-04T15:15:13.091Z,36.52
2023-05-04T15:17:46.906Z,36.75
2023-05-04T15:20:15.901Z,36.91
2023-05-04T15:22:48.976Z,37.10
2023-05-04T15:25:17.312Z,37.94
2023-05-04T15:27:45.673Z,37.82
2023-05-04T15:30:24.299Z,38.63
2023-05-04T15:32:58.226Z,36.79
2023-05-04T15:35:28.629Z,36.74
2023-05-04T15:37:59.592Z,35.19
2023-05-04T15:40:30.050Z,36.68
2023-05-04T15:43:14.446Z,37.33
2023-05-04T15:45:44.640Z,37.16
2023-05-04T15:48:17.000Z,36.80
2023-05-04T15:50:49.869Z,36.78
2023-05-04T15:53:22.088Z,35.94
2023-05-04T15:55:57.353Z,36.86
2023-05-04T15:58:25.813Z,35.87
2023-05-04T16:01:10.727Z,36.64
2023-05-04T16:03:45.052Z,38.50
2023-05-04T16:06:13.264Z,38.39
2023-05-04T16:08:41.513Z,38.03
2023-05-04T16:11:18.209Z,38.00
2023-05-04T16:13:46.260Z,38.24
2023-05-04T16:16:16.130Z,38.65
2023-05-04T16:18:46.658Z,39.27
2023-05-04T16:21:21.412Z,39.65
2023-05-04T16:23:59.896Z,39.61
2023-05-04T16:26:28.047Z,40.00
2023-05-04T16:28:56.716Z,40.89
2023-05-04T16:31:26.776Z,40.53
2023-05-04T16:33:55.929Z,40.29
2023-05-04T16:36:49.462Z,40.89
2023-05-04T16:39:18.858Z,40.67
2023-05-04T16:41:51.089Z,40.91
2023-05-04T16:44:21.312Z,40.29
2023-05-04T16:46:51.919Z,40.78
2023-05-04T16:49:24.151Z,41.69
2023-05-04T16:51:57.618Z,41.80
2023-05-04T16:54:33.780Z,41.46
2023-05-04T16:57:03.727Z,41.26
2023-05-04T16:59:31.552Z,41.51
2023-05-04T17:02:05.379Z,40.68
2023-05-04T17:04:34.557Z,41.45
2023-05-04T17:07:03.303Z,41.29
2023-05-04T17:09:31.578Z,41.29
2023-05-04T17:12:03.493Z,42.81
2023-05-04T17:14:35.082Z,42.94
2023-05-04T17:17:04.978Z,43.05
2023-05-04T17:19:49.252Z,42.92
2023-05-04T17:22:22.209Z,42.96
2023-05-04T17:24:53.439Z,43.34
2023-05-04T17:27:28.448Z,43.49
2023-05-04T17:30:02.076Z,44.09
2023-05-04T17:32:33.720Z,43.74
2023-05-04T17:35:16.547Z,44.07
2023-05-04T17:37:55.958Z,44.34
2023-05-04T17:40:26.112Z,44.33
2023-05-04T17:42:54.337Z,44.18
2023-05-04T17:45:22.602Z,44.23
2023-05-04T17:47:56.856Z,43.98
2023-05-04T17:50:25.802Z,43.78
2023-05-04T17:52:59.380Z,44.11
2023-05-04T17:55:28.626Z,43.83
2023-05-04T17:57:59.572Z,44.51
2023-05-04T18:00:38.462Z,44.20
2023-05-04T18:03:08.635Z,44.14
2023-05-04T18:05:39.289Z,44.46
2023-05-04T18:08:10.229Z,44.43
2023-05-04T18:10:39.913Z,44.54
2023-05-04T18:13:08.645Z,44.73
2023-05-04T18:15:37.467Z,44.54
2023-05-04T18:18:18.988Z,44.97
2023-05-04T18:20:49.654Z,45.41
2023-05-04T18:23:22.123Z,45.40
2023-05-04T18:25:50.379Z,45.65
2023-05-04T18:28:21.440Z,45.73
2023-05-04T18:30:49.832Z,46.30
2023-05-04T18:33:19.745Z,46.91
2023-05-04T18:35:50.501Z,46.91
2023-05-04T18:38:19.701Z,47.12
2023-05-04T18:40:50.498Z,47.19
2023-05-04T18:43:19.094Z,46.89
2023-05-04T18:45:56.146Z,46.98
2023-05-04T18:48:31.772Z,46.57
2023-05-04T18:51:08.046Z,47.00
2023-05-04T18:53:39.195Z,46.77
2023-05-04T18:56:13.235Z,47.03
2023-05-04T18:58:41.287Z,47.20
2023-05-04T19:01:09.382Z,47.53
2023-05-04T19:03:40.829Z,47.33
2023-05-04T19:06:10.720Z,47.53
2023-05-04T19:08:45.090Z,47.09
2023-05-04T19:11:18.484Z,47.42
2023-05-04T19:14:03.088Z,47.38
2023-05-04T19:16:31.261Z,47.85
2023-05-04T19:19:04.132Z,47.51
2023-05-04T19:21:32.177Z,47.88
2023-05-04T19:24:06.456Z,47.89
2023-05-04T19:26:34.757Z,48.08
2023-05-04T19:29:03.004Z,47.87
2023-05-04T19:31:33.997Z,48.25
2023-05-04T19:34:04.934Z,48.01
2023-05-04T19:36:34.710Z,47.93
2023-05-04T19:39:05.739Z,47.98
2023-05-04T19:41:36.424Z,47.60
2023-05-04T19:44:10.387Z,47.60
2023-05-04T19:46:42.918Z,47.95
2023-05-04T19:49:14.121Z,48.21
2023-05-04T19:51:42.577Z,48.97
2023-05-04T19:54:15.176Z,49.41
2023-05-04T19:56:43.185Z,49.83
2023-05-04T19:59:11.574Z,49.68
2023-05-04T20:01:39.706Z,49.66
2023-05-04T20:04:08.742Z,49.90
2023-05-04T20:06:43.502Z,49.37
2023-05-04T20:09:12.026Z,49.76
2023-05-04T20:11:41.499Z,50.01
2023-05-04T20:14:14.065Z,49.93
2023-05-04T20:16:45.139Z,49.86
2023-05-04T20:19:21.554Z,50.23
2023-05-04T20:21:55.788Z,50.97
2023-05-04T20:24:28.701Z,50.34
2023-05-04T20:26:56.913Z,50.50
2023-05-04T20:29:25.049Z,50.74
2023-05-04T20:31:53.568Z,51.41
2023-05-04T20:34:28.520Z,51.96
2023-05-04T20:37:00.840Z,51.63
2023-05-04T20:39:29.302Z,52.16
2023-05-04T20:42:00.253Z,52.42
2023-05-04T20:44:28.407Z,52.63
2023-05-04T20:46:57.953Z,53.09
2023-05-04T20:49:38.637Z,53.11
2023-05-04T20:52:11.413Z,53.37
2023-05-04T20:54:40.469Z,53.03
2023-05-04T20:57:09.031Z,53.57
2023-05-04T20:59:47.122Z,54.05
2023-05-04T21:02:18.725Z,54.01
2023-05-04T21:04:50.111Z,54.10
2023-05-04T21:07:22.746Z,54.93
2023-05-04T21:09:53.828Z,54.28
2023-05-04T21:12:22.120Z,53.97
2023-05-04T21:14:53.187Z,54.67
2023-05-04T21:17:21.519Z,55.25
2023-05-04T21:19:52.909Z,54.53
2023-05-04T21:22:26.560Z,54.06
2023-05-04T21:24:57.789Z,54.89
2023-05-04T21:27:26.562Z,55.83
2023-05-04T21:29:57.392Z,55.21
2023-05-04T21:32:27.728Z,55.23
2023-05-04T21:35:01.655Z,55.70
2023-05-04T21:37:31.428Z,55.49
2023-05-04T21:39:59.566Z,54.76
2023-05-04T21:42:27.998Z,54.23
2023-05-04T21:44:56.279Z,54.52
2023-05-04T21:47:28.050Z,54.40
2023-05-04T21:49:56.074Z,54.63
2023-05-04T21:52:25.593Z,55.73
2023-05-04T21:54:57.767Z,55.59
2023-05-04T21:57:31.541Z,55.68
2023-05-04T22:00:19.585Z,56.10
2023-05-04T22:02:50.166Z,56.17
2023-05-04T22:05:18.507Z,56.15
2023-05-04T22:07:52.382Z,56.94
2023-05-04T22:10:22.490Z,57.96
2023-05-04T22:12:50.957Z,57.13
2023-05-04T22:15:19.420Z,57.30
2023-05-04T22:17:48.826Z,57.33
2023-05-04T22:20:18.469Z,57.24
2023-05-04T22:22:47.888Z,57.30
2023-05-04T22:25:16.082Z,58.06
2023-05-04T22:27:49.438Z,57.45
2023-05-04T22:30:17.963Z,57.98
2023-05-04T22:32:46.815Z,58.71
2023-05-04T22:35:17.610Z,58.92
2023-05-04T22:37:46.297Z,60.52
2023-05-04T22:40:17.485Z,60.19
2023-05-04T22:42:51.658Z,59.07
2023-05-04T22:45:24.626Z,60.43
2023-05-04T22:47:57.358Z,58.90
2023-05-04T22:50:26.170Z,58.41
2023-05-04T22:52:56.135Z,58.41
2023-05-04T22:55:24.532Z,59.26
2023-05-04T22:57:57.391Z,58.45
2023-05-04T23:00:30.682Z,58.61
2023-05-04T23:03:01.888Z,58.85
2023-05-04T23:05:31.280Z,59.38
2023-05-04T23:08:00.609Z,60.08
2023-05-04T23:10:32.117Z,60.06
2023-05-04T23:13:02.677Z,59.10
2023-05-04T23:15:31.602Z,59.23
2023-05-04T23:18:07.328Z,59.42
2023-05-04T23:20:35.850Z,60.43
2023-05-04T23:23:03.918Z,60.07
2023-05-04T23:25:33.180Z,61.02
2023-05-04T23:28:02.933Z,61.19
2023-05-04T23:30:31.260Z,59.99
2023-05-04T23:33:01.627Z,59.87
2023-05-04T23:35:32.962Z,59.22
2023-05-04T23:38:04.158Z,58.28
2023-05-04T23:40:34.485Z,58.29
2023-05-04T23:43:19.465Z,59.27
2023-05-04T23:45:47.921Z,58.79
2023-05-04T23:48:24.980Z,58.29
2023-05-04T23:50:54.241Z,58.68
2023-05-04T23:53:26.443Z,59.58
2023-05-04T23:56:07.575Z,59.54
2023-05-04T23:58:39.638Z,60.53
